Needmore, Kentucky
Current Conditions -  °F | °C
As of 11:15 AM on Thursday 27 Nov 2014 (Local Time) from KFGX Reporting Station
Overcast Overcast  
Wind Chill: 22°   Ceiling: 2900
Heat Index: 32°   Visibility: 10mi
Dew Point: 24°   Wind: 13mph
Humidity: 73%   Direction: 300°WNW
Pressure: 30.27"   Gusts: NA
Location:  38.4934°N, 83.7754°W
Report Text: KFGX 271615Z AUTO 30011KT 10SM SCT019 BKN029 OVC034 00/M04 A3027 RMK AO2 T10011044
Loading
Personal Weather Stations






























Interactive Weather Map New forecast layout! Learn more

10-Day Weather Forecast

Advertisements
Track Severe Weather on mobile